الصفحة الرئيسية
METAR-TAF:

METAR-TAF

مطار :

لاريسا, اليونان

دائرة عرض: 39-38N, خط طول: 022-25E, ارتفاع: 73 متر

METAR: مفقودة

زمن: 07:31 (05:31 UTC)

توقعات

تاريخ ووقت الإصدار 6ساعات و 31 دقيقة قبل الساعة 23:00UTC
التوقعات صالحة من29 الساعة 00 UTC إلى 29 الساعة 09 UTC
ريح 10 عقدة من الشرق
الرؤية 10 كم أو أكثر
غيوم قليلة على ارتفاع 1500 قدم
غيوم متفرقة على ارتفاع 3000 قدم
غيوم مفككة على ارتفاع 8000 قدم

TAF: LGLR 282300Z 2900/2909 09010KT 9999 FEW015 SCT030 BKN080

أرصاد الطقس والتوقعات من أكثر من 4000 مطار (تقارير الطقس للمطار METAR والتنبؤ بالطقس بالمطارTAF).

المحطات المتاحة هي النقط الصفراء والحمراء على الخريطة.

حرك المؤشر فوق النقطة لمعرفة اسم المحطة.

ثم انقر لمعرفة أرصاد وتوقعات الطقس.

لتغيير الخارطة: اضغط على الأزرار الخضراء مع رمز الصليب الأسود للتكبير. على الزر الأخضر مع شرطة للتصغير، أو على الأسهم الخضراء للخرائط المجاورة.


METAR-TAF: